sensor_id;sensor_type;location;lat;lon;timestamp;temperature;humidity
43858;DHT22;29507;51.284;5.758;2023-02-18T00:01:12;11.00;99.90
43858;DHT22;29507;51.284;5.758;2023-02-18T00:03:38;11.00;99.90
43858;DHT22;29507;51.284;5.758;2023-02-18T00:06:25;10.90;99.90
43858;DHT22;29507;51.284;5.758;2023-02-18T00:08:51;10.90;99.90
43858;DHT22;29507;51.284;5.758;2023-02-18T00:11:19;10.90;99.90
43858;DHT22;29507;51.284;5.758;2023-02-18T00:13:56;10.90;99.90
43858;DHT22;29507;51.284;5.758;2023-02-18T00:16:23;10.90;99.90
43858;DHT22;29507;51.284;5.758;2023-02-18T00:18:49;10.90;99.90
43858;DHT22;29507;51.284;5.758;2023-02-18T00:21:15;10.90;99.90
43858;DHT22;29507;51.284;5.758;2023-02-18T00:23:41;10.90;99.90
43858;DHT22;29507;51.284;5.758;2023-02-18T00:26:12;10.90;99.90
43858;DHT22;29507;51.284;5.758;2023-02-18T00:28:38;10.80;99.90
43858;DHT22;29507;51.284;5.758;2023-02-18T00:31:12;10.80;99.90
43858;DHT22;29507;51.284;5.758;2023-02-18T00:33:40;10.80;99.90
43858;DHT22;29507;51.284;5.758;2023-02-18T00:36:08;10.80;99.90
43858;DHT22;29507;51.284;5.758;2023-02-18T00:38:33;10.70;99.90
43858;DHT22;29507;51.284;5.758;2023-02-18T00:41:00;10.60;99.90
43858;DHT22;29507;51.284;5.758;2023-02-18T00:43:26;10.50;99.90
43858;DHT22;29507;51.284;5.758;2023-02-18T00:45:52;10.50;99.90
43858;DHT22;29507;51.284;5.758;2023-02-18T00:48:18;10.40;99.90
43858;DHT22;29507;51.284;5.758;2023-02-18T00:50:44;10.30;99.90
43858;DHT22;29507;51.284;5.758;2023-02-18T00:53:10;10.20;99.90
43858;DHT22;29507;51.284;5.758;2023-02-18T00:55:42;10.20;99.90
43858;DHT22;29507;51.284;5.758;2023-02-18T00:58:09;10.10;99.90
43858;DHT22;29507;51.284;5.758;2023-02-18T01:00:35;10.10;99.90
43858;DHT22;29507;51.284;5.758;2023-02-18T01:03:01;10.10;99.90
43858;DHT22;29507;51.284;5.758;2023-02-18T01:05:26;10.10;99.90
43858;DHT22;29507;51.284;5.758;2023-02-18T01:07:52;10.10;99.90
43858;DHT22;29507;51.284;5.758;2023-02-18T01:10:18;10.00;99.90
43858;DHT22;29507;51.284;5.758;2023-02-18T01:12:43;10.00;99.90
43858;DHT22;29507;51.284;5.758;2023-02-18T01:15:11;10.00;99.90
43858;DHT22;29507;51.284;5.758;2023-02-18T01:17:38;9.90;99.90
43858;DHT22;29507;51.284;5.758;2023-02-18T01:20:04;9.90;99.90
43858;DHT22;29507;51.284;5.758;2023-02-18T01:22:30;9.90;99.90
43858;DHT22;29507;51.284;5.758;2023-02-18T01:24:55;9.90;99.90
43858;DHT22;29507;51.284;5.758;2023-02-18T01:27:21;9.90;99.90
43858;DHT22;29507;51.284;5.758;2023-02-18T01:29:47;9.90;99.90
43858;DHT22;29507;51.284;5.758;2023-02-18T01:32:13;9.90;99.90
43858;DHT22;29507;51.284;5.758;2023-02-18T01:34:38;9.90;99.90
43858;DHT22;29507;51.284;5.758;2023-02-18T01:37:04;9.90;99.90
43858;DHT22;29507;51.284;5.758;2023-02-18T01:39:29;10.00;99.90
43858;DHT22;29507;51.284;5.758;2023-02-18T01:41:55;9.90;99.90
43858;DHT22;29507;51.284;5.758;2023-02-18T01:44:23;10.00;99.90
43858;DHT22;29507;51.284;5.758;2023-02-18T01:46:49;10.10;99.90
43858;DHT22;29507;51.284;5.758;2023-02-18T01:49:38;10.10;99.90
43858;DHT22;29507;51.284;5.758;2023-02-18T01:52:23;10.10;99.90
43858;DHT22;29507;51.284;5.758;2023-02-18T01:54:55;10.10;99.90
43858;DHT22;29507;51.284;5.758;2023-02-18T01:57:28;10.10;99.90
43858;DHT22;29507;51.284;5.758;2023-02-18T02:00:12;10.10;99.90
43858;DHT22;29507;51.284;5.758;2023-02-18T02:02:41;10.10;99.90
43858;DHT22;29507;51.284;5.758;2023-02-18T02:05:07;10.10;99.90
43858;DHT22;29507;51.284;5.758;2023-02-18T02:07:33;10.00;99.90
43858;DHT22;29507;51.284;5.758;2023-02-18T02:09:59;10.00;99.90
43858;DHT22;29507;51.284;5.758;2023-02-18T02:12:49;10.00;99.90
43858;DHT22;29507;51.284;5.758;2023-02-18T02:15:26;10.10;99.90
43858;DHT22;29507;51.284;5.758;2023-02-18T02:36:51;10.20;99.90
43858;DHT22;29507;51.284;5.758;2023-02-18T02:42:04;10.20;99.90
43858;DHT22;29507;51.284;5.758;2023-02-18T02:44:50;10.20;99.90
43858;DHT22;29507;51.284;5.758;2023-02-18T02:50:37;10.20;99.90
43858;DHT22;29507;51.284;5.758;2023-02-18T02:53:32;10.20;99.90
43858;DHT22;29507;51.284;5.758;2023-02-18T02:55:56;10.30;99.90
43858;DHT22;29507;51.284;5.758;2023-02-18T02:58:22;10.20;99.90
43858;DHT22;29507;51.284;5.758;2023-02-18T03:12:39;10.00;99.90
43858;DHT22;29507;51.284;5.758;2023-02-18T03:16:16;10.00;99.90
43858;DHT22;29507;51.284;5.758;2023-02-18T03:21:09;9.90;99.90
43858;DHT22;29507;51.284;5.758;2023-02-18T03:23:50;9.90;99.90
43858;DHT22;29507;51.284;5.758;2023-02-18T03:26:18;9.90;99.90
43858;DHT22;29507;51.284;5.758;2023-02-18T03:28:46;9.90;99.90
43858;DHT22;29507;51.284;5.758;2023-02-18T03:31:16;9.80;99.90
43858;DHT22;29507;51.284;5.758;2023-02-18T03:33:50;9.90;99.90
43858;DHT22;29507;51.284;5.758;2023-02-18T03:36:19;9.90;99.90
43858;DHT22;29507;51.284;5.758;2023-02-18T03:38:53;9.90;99.90
43858;DHT22;29507;51.284;5.758;2023-02-18T03:41:20;9.90;99.90
43858;DHT22;29507;51.284;5.758;2023-02-18T03:43:53;9.90;99.90
43858;DHT22;29507;51.284;5.758;2023-02-18T03:46:22;9.80;99.90
43858;DHT22;29507;51.284;5.758;2023-02-18T03:48:48;9.80;99.90
43858;DHT22;29507;51.284;5.758;2023-02-18T03:51:13;9.80;99.90
43858;DHT22;29507;51.284;5.758;2023-02-18T03:53:39;9.80;99.90
43858;DHT22;29507;51.284;5.758;2023-02-18T03:56:05;9.80;99.90
43858;DHT22;29507;51.284;5.758;2023-02-18T03:58:30;9.80;99.90
43858;DHT22;29507;51.284;5.758;2023-02-18T04:00:56;9.80;99.90
43858;DHT22;29507;51.284;5.758;2023-02-18T04:03:21;9.80;99.90
43858;DHT22;29507;51.284;5.758;2023-02-18T04:05:47;9.80;99.90
43858;DHT22;29507;51.284;5.758;2023-02-18T04:08:12;9.70;99.90
43858;DHT22;29507;51.284;5.758;2023-02-18T04:10:38;9.80;99.90
43858;DHT22;29507;51.284;5.758;2023-02-18T04:13:04;9.70;99.90
43858;DHT22;29507;51.284;5.758;2023-02-18T04:15:29;9.80;99.90
43858;DHT22;29507;51.284;5.758;2023-02-18T04:17:55;9.80;99.90
43858;DHT22;29507;51.284;5.758;2023-02-18T04:20:21;9.80;99.90
43858;DHT22;29507;51.284;5.758;2023-02-18T04:22:47;9.80;99.90
43858;DHT22;29507;51.284;5.758;2023-02-18T04:25:13;9.80;99.90
43858;DHT22;29507;51.284;5.758;2023-02-18T04:27:38;9.80;99.90
43858;DHT22;29507;51.284;5.758;2023-02-18T04:30:04;9.80;99.90
43858;DHT22;29507;51.284;5.758;2023-02-18T04:32:30;9.70;99.90
43858;DHT22;29507;51.284;5.758;2023-02-18T04:34:56;9.80;99.90
43858;DHT22;29507;51.284;5.758;2023-02-18T04:37:21;9.80;99.90
43858;DHT22;29507;51.284;5.758;2023-02-18T04:39:47;9.70;99.90
43858;DHT22;29507;51.284;5.758;2023-02-18T04:42:13;9.70;99.90
43858;DHT22;29507;51.284;5.758;2023-02-18T04:44:38;9.70;99.90
43858;DHT22;29507;51.284;5.758;2023-02-18T04:47:05;9.70;99.90
43858;DHT22;29507;51.284;5.758;2023-02-18T04:49:31;9.70;99.90
43858;DHT22;29507;51.284;5.758;2023-02-18T04:51:57;9.70;99.90
43858;DHT22;29507;51.284;5.758;2023-02-18T04:54:23;9.80;99.90
43858;DHT22;29507;51.284;5.758;2023-02-18T04:56:49;9.70;99.90
43858;DHT22;29507;51.284;5.758;2023-02-18T04:59:14;9.70;99.90
43858;DHT22;29507;51.284;5.758;2023-02-18T05:01:40;9.70;99.90
43858;DHT22;29507;51.284;5.758;2023-02-18T05:04:06;9.70;99.90
43858;DHT22;29507;51.284;5.758;2023-02-18T05:06:31;9.70;99.90
43858;DHT22;29507;51.284;5.758;2023-02-18T05:08:57;9.80;99.90
43858;DHT22;29507;51.284;5.758;2023-02-18T05:11:23;9.70;99.90
43858;DHT22;29507;51.284;5.758;2023-02-18T05:13:48;9.70;99.90
43858;DHT22;29507;51.284;5.758;2023-02-18T05:16:14;9.70;99.90
43858;DHT22;29507;51.284;5.758;2023-02-18T05:18:40;9.70;99.90
43858;DHT22;29507;51.284;5.758;2023-02-18T05:21:05;9.70;99.90
43858;DHT22;29507;51.284;5.758;2023-02-18T05:23:31;9.70;99.90
43858;DHT22;29507;51.284;5.758;2023-02-18T05:25:56;9.70;99.90
43858;DHT22;29507;51.284;5.758;2023-02-18T05:28:22;9.70;99.90
43858;DHT22;29507;51.284;5.758;2023-02-18T05:30:48;9.70;99.90
43858;DHT22;29507;51.284;5.758;2023-02-18T05:33:13;9.70;99.90
43858;DHT22;29507;51.284;5.758;2023-02-18T05:35:39;9.70;99.90
43858;DHT22;29507;51.284;5.758;2023-02-18T05:38:05;9.70;99.90
43858;DHT22;29507;51.284;5.758;2023-02-18T05:40:30;9.70;99.90
43858;DHT22;29507;51.284;5.758;2023-02-18T05:42:56;9.70;99.90
43858;DHT22;29507;51.284;5.758;2023-02-18T05:45:21;9.70;99.90
43858;DHT22;29507;51.284;5.758;2023-02-18T05:47:47;9.60;99.90
43858;DHT22;29507;51.284;5.758;2023-02-18T05:50:13;9.60;99.90
43858;DHT22;29507;51.284;5.758;2023-02-18T05:52:38;9.60;99.90
43858;DHT22;29507;51.284;5.758;2023-02-18T05:55:05;9.60;99.90
43858;DHT22;29507;51.284;5.758;2023-02-18T05:57:30;9.50;99.90
43858;DHT22;29507;51.284;5.758;2023-02-18T05:59:56;9.60;99.90
43858;DHT22;29507;51.284;5.758;2023-02-18T06:02:21;9.60;99.90
43858;DHT22;29507;51.284;5.758;2023-02-18T06:04:47;9.60;99.90
43858;DHT22;29507;51.284;5.758;2023-02-18T06:07:13;9.60;99.90
43858;DHT22;29507;51.284;5.758;2023-02-18T06:09:38;9.60;99.90
43858;DHT22;29507;51.284;5.758;2023-02-18T06:12:04;9.60;99.90
43858;DHT22;29507;51.284;5.758;2023-02-18T06:14:30;9.60;99.90
43858;DHT22;29507;51.284;5.758;2023-02-18T06:16:55;9.50;99.90
43858;DHT22;29507;51.284;5.758;2023-02-18T06:19:21;9.60;99.90
43858;DHT22;29507;51.284;5.758;2023-02-18T06:21:47;9.60;99.90
43858;DHT22;29507;51.284;5.758;2023-02-18T06:24:12;9.50;99.90
43858;DHT22;29507;51.284;5.758;2023-02-18T06:26:38;9.50;99.90
43858;DHT22;29507;51.284;5.758;2023-02-18T06:29:03;9.50;99.90
43858;DHT22;29507;51.284;5.758;2023-02-18T06:31:29;9.60;99.90
43858;DHT22;29507;51.284;5.758;2023-02-18T06:33:55;9.70;99.90
43858;DHT22;29507;51.284;5.758;2023-02-18T06:36:20;9.70;99.90
43858;DHT22;29507;51.284;5.758;2023-02-18T06:38:46;9.70;99.90
43858;DHT22;29507;51.284;5.758;2023-02-18T06:41:13;9.80;99.90
43858;DHT22;29507;51.284;5.758;2023-02-18T06:43:39;9.80;99.90
43858;DHT22;29507;51.284;5.758;2023-02-18T06:46:05;9.80;99.90
43858;DHT22;29507;51.284;5.758;2023-02-18T06:48:31;9.80;99.90
43858;DHT22;29507;51.284;5.758;2023-02-18T06:50:57;9.70;99.90
43858;DHT22;29507;51.284;5.758;2023-02-18T06:53:24;9.70;99.90
43858;DHT22;29507;51.284;5.758;2023-02-18T06:55:50;9.70;99.90
43858;DHT22;29507;51.284;5.758;2023-02-18T06:58:15;9.70;99.90
43858;DHT22;29507;51.284;5.758;2023-02-18T07:00:42;9.60;99.90
43858;DHT22;29507;51.284;5.758;2023-02-18T07:03:07;9.50;99.90
43858;DHT22;29507;51.284;5.758;2023-02-18T07:05:35;9.50;99.90
43858;DHT22;29507;51.284;5.758;2023-02-18T07:08:01;9.50;99.90
43858;DHT22;29507;51.284;5.758;2023-02-18T07:10:26;9.40;99.90
43858;DHT22;29507;51.284;5.758;2023-02-18T07:12:52;9.30;99.90
43858;DHT22;29507;51.284;5.758;2023-02-18T07:15:18;9.30;99.90
43858;DHT22;29507;51.284;5.758;2023-02-18T07:17:49;9.30;99.90
43858;DHT22;29507;51.284;5.758;2023-02-18T07:20:15;9.20;99.90
43858;DHT22;29507;51.284;5.758;2023-02-18T07:22:40;9.20;99.90
43858;DHT22;29507;51.284;5.758;2023-02-18T07:25:06;9.20;99.90
43858;DHT22;29507;51.284;5.758;2023-02-18T07:27:32;9.10;99.90
43858;DHT22;29507;51.284;5.758;2023-02-18T07:29:57;9.00;99.90
43858;DHT22;29507;51.284;5.758;2023-02-18T07:32:23;9.10;99.90
43858;DHT22;29507;51.284;5.758;2023-02-18T07:34:50;9.00;99.90
43858;DHT22;29507;51.284;5.758;2023-02-18T07:37:17;8.90;99.90
43858;DHT22;29507;51.284;5.758;2023-02-18T07:39:44;8.90;99.90
43858;DHT22;29507;51.284;5.758;2023-02-18T07:42:10;8.90;99.90
43858;DHT22;29507;51.284;5.758;2023-02-18T07:44:37;8.90;99.90
43858;DHT22;29507;51.284;5.758;2023-02-18T07:47:04;8.90;99.90
43858;DHT22;29507;51.284;5.758;2023-02-18T07:49:31;8.90;99.90
43858;DHT22;29507;51.284;5.758;2023-02-18T07:51:56;8.90;99.90
43858;DHT22;29507;51.284;5.758;2023-02-18T07:54:22;9.00;99.90
43858;DHT22;29507;51.284;5.758;2023-02-18T07:56:48;9.10;99.90
43858;DHT22;29507;51.284;5.758;2023-02-18T07:59:14;9.20;99.90
43858;DHT22;29507;51.284;5.758;2023-02-18T08:01:40;9.20;99.90
43858;DHT22;29507;51.284;5.758;2023-02-18T08:04:06;9.30;99.90
43858;DHT22;29507;51.284;5.758;2023-02-18T08:08:59;9.30;99.90
43858;DHT22;29507;51.284;5.758;2023-02-18T08:11:25;9.30;99.90
43858;DHT22;29507;51.284;5.758;2023-02-18T08:13:51;9.30;99.90
43858;DHT22;29507;51.284;5.758;2023-02-18T08:16:17;9.30;99.90
43858;DHT22;29507;51.284;5.758;2023-02-18T08:18:44;9.30;99.90
43858;DHT22;29507;51.284;5.758;2023-02-18T08:21:10;9.30;99.90
43858;DHT22;29507;51.284;5.758;2023-02-18T08:23:35;9.30;99.90
43858;DHT22;29507;51.284;5.758;2023-02-18T08:26:01;9.30;99.90
43858;DHT22;29507;51.284;5.758;2023-02-18T08:28:26;9.40;99.90
43858;DHT22;29507;51.284;5.758;2023-02-18T08:30:53;9.40;99.90
43858;DHT22;29507;51.284;5.758;2023-02-18T08:33:19;9.40;99.90
43858;DHT22;29507;51.284;5.758;2023-02-18T08:35:46;9.50;99.90
43858;DHT22;29507;51.284;5.758;2023-02-18T08:38:12;9.60;99.90
43858;DHT22;29507;51.284;5.758;2023-02-18T08:40:38;9.70;99.90
43858;DHT22;29507;51.284;5.758;2023-02-18T08:43:05;9.70;99.90
43858;DHT22;29507;51.284;5.758;2023-02-18T08:45:31;9.70;99.90
43858;DHT22;29507;51.284;5.758;2023-02-18T08:47:57;9.70;99.90
43858;DHT22;29507;51.284;5.758;2023-02-18T08:50:23;9.70;99.90
43858;DHT22;29507;51.284;5.758;2023-02-18T08:52:51;9.70;99.90
43858;DHT22;29507;51.284;5.758;2023-02-18T08:55:18;9.80;99.90
43858;DHT22;29507;51.284;5.758;2023-02-18T08:57:46;9.90;99.90
43858;DHT22;29507;51.284;5.758;2023-02-18T09:00:16;9.90;99.90
43858;DHT22;29507;51.284;5.758;2023-02-18T09:02:42;9.90;99.90
43858;DHT22;29507;51.284;5.758;2023-02-18T09:05:08;10.00;99.90
43858;DHT22;29507;51.284;5.758;2023-02-18T09:07:35;10.00;99.90
43858;DHT22;29507;51.284;5.758;2023-02-18T09:10:00;10.00;99.90
43858;DHT22;29507;51.284;5.758;2023-02-18T09:12:27;10.00;99.90
43858;DHT22;29507;51.284;5.758;2023-02-18T09:14:53;10.10;99.90
43858;DHT22;29507;51.284;5.758;2023-02-18T09:17:19;10.20;99.90
43858;DHT22;29507;51.284;5.758;2023-02-18T09:19:44;10.20;99.90
43858;DHT22;29507;51.284;5.758;2023-02-18T09:22:10;10.30;99.90
43858;DHT22;29507;51.284;5.758;2023-02-18T09:24:37;10.30;99.90
43858;DHT22;29507;51.284;5.758;2023-02-18T09:27:03;10.40;99.90
43858;DHT22;29507;51.284;5.758;2023-02-18T09:29:29;10.40;99.90
43858;DHT22;29507;51.284;5.758;2023-02-18T09:31:54;10.40;99.90
43858;DHT22;29507;51.284;5.758;2023-02-18T09:34:20;10.50;99.90
43858;DHT22;29507;51.284;5.758;2023-02-18T09:36:46;10.50;99.90
43858;DHT22;29507;51.284;5.758;2023-02-18T09:39:11;10.50;99.90
43858;DHT22;29507;51.284;5.758;2023-02-18T09:41:45;10.60;99.90
43858;DHT22;29507;51.284;5.758;2023-02-18T09:44:20;10.50;99.90
43858;DHT22;29507;51.284;5.758;2023-02-18T09:46:59;10.50;99.90
43858;DHT22;29507;51.284;5.758;2023-02-18T09:49:34;10.40;99.90
43858;DHT22;29507;51.284;5.758;2023-02-18T09:52:21;10.50;99.90
43858;DHT22;29507;51.284;5.758;2023-02-18T09:54:51;10.40;99.90
43858;DHT22;29507;51.284;5.758;2023-02-18T09:57:23;10.30;99.90
43858;DHT22;29507;51.284;5.758;2023-02-18T10:00:04;10.20;99.90
43858;DHT22;29507;51.284;5.758;2023-02-18T10:02:33;10.30;99.90
43858;DHT22;29507;51.284;5.758;2023-02-18T10:05:00;10.10;99.90
43858;DHT22;29507;51.284;5.758;2023-02-18T10:07:32;9.80;99.90
43858;DHT22;29507;51.284;5.758;2023-02-18T10:12:55;9.50;99.90
43858;DHT22;29507;51.284;5.758;2023-02-18T10:15:33;9.30;99.90
43858;DHT22;29507;51.284;5.758;2023-02-18T10:18:02;9.30;99.90
43858;DHT22;29507;51.284;5.758;2023-02-18T10:20:33;9.40;99.90
43858;DHT22;29507;51.284;5.758;2023-02-18T10:23:03;9.60;99.90
43858;DHT22;29507;51.284;5.758;2023-02-18T10:25:31;9.70;99.90
43858;DHT22;29507;51.284;5.758;2023-02-18T10:28:07;9.70;99.90
43858;DHT22;29507;51.284;5.758;2023-02-18T10:30:58;9.80;99.90
43858;DHT22;29507;51.284;5.758;2023-02-18T10:33:49;9.80;99.90
43858;DHT22;29507;51.284;5.758;2023-02-18T10:36:43;9.80;99.90
43858;DHT22;29507;51.284;5.758;2023-02-18T10:45:37;9.80;99.90
43858;DHT22;29507;51.284;5.758;2023-02-18T10:48:30;9.80;99.90
43858;DHT22;29507;51.284;5.758;2023-02-18T10:51:00;9.80;99.90
43858;DHT22;29507;51.284;5.758;2023-02-18T10:53:36;9.90;99.90
43858;DHT22;29507;51.284;5.758;2023-02-18T10:56:04;9.80;99.90
43858;DHT22;29507;51.284;5.758;2023-02-18T10:58:36;9.80;99.90
43858;DHT22;29507;51.284;5.758;2023-02-18T11:01:13;9.70;99.90
43858;DHT22;29507;51.284;5.758;2023-02-18T11:03:41;9.60;99.90
43858;DHT22;29507;51.284;5.758;2023-02-18T11:06:15;9.50;99.90
43858;DHT22;29507;51.284;5.758;2023-02-18T11:08:45;9.50;99.90
43858;DHT22;29507;51.284;5.758;2023-02-18T11:11:23;9.50;99.90
43858;DHT22;29507;51.284;5.758;2023-02-18T11:13:54;9.40;99.90
43858;DHT22;29507;51.284;5.758;2023-02-18T11:16:44;9.30;99.90
43858;DHT22;29507;51.284;5.758;2023-02-18T11:19:38;9.30;99.90
43858;DHT22;29507;51.284;5.758;2023-02-18T11:24:45;9.40;99.90
43858;DHT22;29507;51.284;5.758;2023-02-18T11:27:19;9.40;99.90
43858;DHT22;29507;51.284;5.758;2023-02-18T11:29:50;9.30;99.90
43858;DHT22;29507;51.284;5.758;2023-02-18T11:32:17;9.30;99.90
43858;DHT22;29507;51.284;5.758;2023-02-18T11:34:43;9.30;99.90
43858;DHT22;29507;51.284;5.758;2023-02-18T11:37:16;9.20;99.90
43858;DHT22;29507;51.284;5.758;2023-02-18T11:39:44;9.30;99.90
43858;DHT22;29507;51.284;5.758;2023-02-18T11:42:16;9.20;99.90
43858;DHT22;29507;51.284;5.758;2023-02-18T11:44:55;9.30;99.90
43858;DHT22;29507;51.284;5.758;2023-02-18T11:47:28;9.30;99.90
43858;DHT22;29507;51.284;5.758;2023-02-18T11:50:03;9.20;99.90
43858;DHT22;29507;51.284;5.758;2023-02-18T11:57:43;9.40;99.90
43858;DHT22;29507;51.284;5.758;2023-02-18T12:00:20;9.40;99.90
43858;DHT22;29507;51.284;5.758;2023-02-18T12:02:46;9.40;99.90
43858;DHT22;29507;51.284;5.758;2023-02-18T12:05:31;9.40;99.90
43858;DHT22;29507;51.284;5.758;2023-02-18T12:08:06;9.40;99.90
43858;DHT22;29507;51.284;5.758;2023-02-18T12:10:35;9.50;99.90
43858;DHT22;29507;51.284;5.758;2023-02-18T12:13:06;9.70;99.90
43858;DHT22;29507;51.284;5.758;2023-02-18T12:18:55;9.90;99.90
43858;DHT22;29507;51.284;5.758;2023-02-18T12:33:00;10.00;99.90
43858;DHT22;29507;51.284;5.758;2023-02-18T12:36:06;9.90;99.90
43858;DHT22;29507;51.284;5.758;2023-02-18T12:38:53;9.90;99.90
43858;DHT22;29507;51.284;5.758;2023-02-18T12:41:32;9.90;99.90
43858;DHT22;29507;51.284;5.758;2023-02-18T12:52:38;9.80;99.90
43858;DHT22;29507;51.284;5.758;2023-02-18T12:58:33;9.90;99.90
43858;DHT22;29507;51.284;5.758;2023-02-18T13:12:37;10.40;99.90
43858;DHT22;29507;51.284;5.758;2023-02-18T13:15:22;10.50;99.90
43858;DHT22;29507;51.284;5.758;2023-02-18T13:17:50;10.60;99.90
43858;DHT22;29507;51.284;5.758;2023-02-18T13:20:45;10.70;99.90
43858;DHT22;29507;51.284;5.758;2023-02-18T13:23:21;10.70;99.90
43858;DHT22;29507;51.284;5.758;2023-02-18T13:25:54;10.70;99.90
43858;DHT22;29507;51.284;5.758;2023-02-18T13:28:48;10.90;99.90
43858;DHT22;29507;51.284;5.758;2023-02-18T13:34:35;11.10;99.90
43858;DHT22;29507;51.284;5.758;2023-02-18T13:37:21;11.10;99.90
43858;DHT22;29507;51.284;5.758;2023-02-18T13:39:53;11.00;99.90
43858;DHT22;29507;51.284;5.758;2023-02-18T13:42:24;11.00;99.90
43858;DHT22;29507;51.284;5.758;2023-02-18T13:47:42;11.00;99.90
43858;DHT22;29507;51.284;5.758;2023-02-18T13:58:12;11.10;99.90
43858;DHT22;29507;51.284;5.758;2023-02-18T14:00:40;11.10;99.90
43858;DHT22;29507;51.284;5.758;2023-02-18T14:04:31;11.10;99.90
43858;DHT22;29507;51.284;5.758;2023-02-18T14:06:23;11.00;99.90
43858;DHT22;29507;51.284;5.758;2023-02-18T14:08:49;10.90;99.90
43858;DHT22;29507;51.284;5.758;2023-02-18T14:13:46;10.80;99.90
43858;DHT22;29507;51.284;5.758;2023-02-18T14:16:13;10.70;99.90
43858;DHT22;29507;51.284;5.758;2023-02-18T14:21:19;10.50;99.90
43858;DHT22;29507;51.284;5.758;2023-02-18T14:26:59;10.30;99.90
43858;DHT22;29507;51.284;5.758;2023-02-18T14:29:29;10.40;99.90
43858;DHT22;29507;51.284;5.758;2023-02-18T14:31:56;10.40;99.90
43858;DHT22;29507;51.284;5.758;2023-02-18T14:34:59;10.50;99.90
43858;DHT22;29507;51.284;5.758;2023-02-18T14:37:34;10.60;99.90
43858;DHT22;29507;51.284;5.758;2023-02-18T14:42:41;10.90;99.90
43858;DHT22;29507;51.284;5.758;2023-02-18T14:45:26;11.00;99.90
43858;DHT22;29507;51.284;5.758;2023-02-18T14:50:33;11.30;99.90
43858;DHT22;29507;51.284;5.758;2023-02-18T14:53:04;11.40;99.90
43858;DHT22;29507;51.284;5.758;2023-02-18T14:55:38;11.40;99.90
43858;DHT22;29507;51.284;5.758;2023-02-18T14:58:17;11.40;99.90
43858;DHT22;29507;51.284;5.758;2023-02-18T15:00:48;11.40;99.90
43858;DHT22;29507;51.284;5.758;2023-02-18T15:03:18;11.30;99.90
43858;DHT22;29507;51.284;5.758;2023-02-18T15:05:47;11.20;99.90
43858;DHT22;29507;51.284;5.758;2023-02-18T15:08:20;11.20;99.90
43858;DHT22;29507;51.284;5.758;2023-02-18T15:10:48;11.20;99.90
43858;DHT22;29507;51.284;5.758;2023-02-18T15:13:31;11.10;99.90
43858;DHT22;29507;51.284;5.758;2023-02-18T15:16:01;11.00;99.90
43858;DHT22;29507;51.284;5.758;2023-02-18T15:18:33;11.00;99.90
43858;DHT22;29507;51.284;5.758;2023-02-18T15:21:01;11.00;99.90
43858;DHT22;29507;51.284;5.758;2023-02-18T15:23:28;11.00;99.90
43858;DHT22;29507;51.284;5.758;2023-02-18T15:25:54;11.00;99.90
43858;DHT22;29507;51.284;5.758;2023-02-18T15:28:22;11.00;99.90
43858;DHT22;29507;51.284;5.758;2023-02-18T15:30:48;11.00;99.90
43858;DHT22;29507;51.284;5.758;2023-02-18T15:33:15;11.10;99.90
43858;DHT22;29507;51.284;5.758;2023-02-18T15:35:42;11.00;99.90
43858;DHT22;29507;51.284;5.758;2023-02-18T15:38:34;11.10;99.90
43858;DHT22;29507;51.284;5.758;2023-02-18T15:41:03;11.10;99.90
43858;DHT22;29507;51.284;5.758;2023-02-18T15:43:29;11.10;99.90
43858;DHT22;29507;51.284;5.758;2023-02-18T15:45:57;11.20;99.90
43858;DHT22;29507;51.284;5.758;2023-02-18T15:48:34;11.20;99.90
43858;DHT22;29507;51.284;5.758;2023-02-18T15:51:05;11.10;99.90
43858;DHT22;29507;51.284;5.758;2023-02-18T15:53:37;11.10;99.90
43858;DHT22;29507;51.284;5.758;2023-02-18T15:56:17;11.10;99.90
43858;DHT22;29507;51.284;5.758;2023-02-18T15:58:45;11.00;99.90
43858;DHT22;29507;51.284;5.758;2023-02-18T16:01:27;10.90;99.90
43858;DHT22;29507;51.284;5.758;2023-02-18T16:03:55;10.90;99.90
43858;DHT22;29507;51.284;5.758;2023-02-18T16:06:22;10.80;99.90
43858;DHT22;29507;51.284;5.758;2023-02-18T16:09:03;10.70;99.90
43858;DHT22;29507;51.284;5.758;2023-02-18T16:11:34;10.70;99.90
43858;DHT22;29507;51.284;5.758;2023-02-18T16:14:01;10.70;99.90
43858;DHT22;29507;51.284;5.758;2023-02-18T16:16:29;10.60;99.90
43858;DHT22;29507;51.284;5.758;2023-02-18T16:18:55;10.40;99.90
43858;DHT22;29507;51.284;5.758;2023-02-18T16:21:35;10.40;99.90
43858;DHT22;29507;51.284;5.758;2023-02-18T16:24:03;10.30;99.90
43858;DHT22;29507;51.284;5.758;2023-02-18T16:26:46;10.20;99.90
43858;DHT22;29507;51.284;5.758;2023-02-18T16:29:33;10.10;99.90
43858;DHT22;29507;51.284;5.758;2023-02-18T16:31:58;10.10;99.90
43858;DHT22;29507;51.284;5.758;2023-02-18T16:34:24;10.00;99.90
43858;DHT22;29507;51.284;5.758;2023-02-18T16:36:50;10.00;99.90
43858;DHT22;29507;51.284;5.758;2023-02-18T16:39:34;10.00;99.90
43858;DHT22;29507;51.284;5.758;2023-02-18T16:42:00;10.00;99.90
43858;DHT22;29507;51.284;5.758;2023-02-18T16:44:26;9.90;99.90
43858;DHT22;29507;51.284;5.758;2023-02-18T16:46:51;9.90;99.90
43858;DHT22;29507;51.284;5.758;2023-02-18T16:49:17;10.00;99.90
43858;DHT22;29507;51.284;5.758;2023-02-18T16:51:43;9.90;99.90
43858;DHT22;29507;51.284;5.758;2023-02-18T16:54:12;9.90;99.90
43858;DHT22;29507;51.284;5.758;2023-02-18T16:56:38;9.80;99.90
43858;DHT22;29507;51.284;5.758;2023-02-18T16:59:04;9.80;99.90
43858;DHT22;29507;51.284;5.758;2023-02-18T17:01:32;9.80;99.90
43858;DHT22;29507;51.284;5.758;2023-02-18T17:04:00;9.80;99.90
43858;DHT22;29507;51.284;5.758;2023-02-18T17:06:27;9.80;99.90
43858;DHT22;29507;51.284;5.758;2023-02-18T17:08:52;9.80;99.90
43858;DHT22;29507;51.284;5.758;2023-02-18T17:11:24;9.80;99.90
43858;DHT22;29507;51.284;5.758;2023-02-18T17:13:52;9.70;99.90
43858;DHT22;29507;51.284;5.758;2023-02-18T17:16:19;9.70;99.90
43858;DHT22;29507;51.284;5.758;2023-02-18T17:18:44;9.70;99.90
43858;DHT22;29507;51.284;5.758;2023-02-18T17:21:15;9.70;99.90
43858;DHT22;29507;51.284;5.758;2023-02-18T17:23:41;9.70;99.90
43858;DHT22;29507;51.284;5.758;2023-02-18T17:26:24;9.70;99.90
43858;DHT22;29507;51.284;5.758;2023-02-18T17:28:54;9.70;99.90
43858;DHT22;29507;51.284;5.758;2023-02-18T17:31:23;9.70;99.90
43858;DHT22;29507;51.284;5.758;2023-02-18T17:33:52;9.70;99.90
43858;DHT22;29507;51.284;5.758;2023-02-18T17:36:18;9.70;99.90
43858;DHT22;29507;51.284;5.758;2023-02-18T17:38:43;9.70;99.90
43858;DHT22;29507;51.284;5.758;2023-02-18T17:41:11;9.70;99.90
43858;DHT22;29507;51.284;5.758;2023-02-18T17:43:37;9.70;99.90
43858;DHT22;29507;51.284;5.758;2023-02-18T17:46:03;9.70;99.90
43858;DHT22;29507;51.284;5.758;2023-02-18T17:48:29;9.70;99.90
43858;DHT22;29507;51.284;5.758;2023-02-18T17:50:55;9.70;99.90
43858;DHT22;29507;51.284;5.758;2023-02-18T17:53:21;9.70;99.90
43858;DHT22;29507;51.284;5.758;2023-02-18T17:55:47;9.70;99.90
43858;DHT22;29507;51.284;5.758;2023-02-18T17:58:14;9.80;99.90
43858;DHT22;29507;51.284;5.758;2023-02-18T18:00:52;9.80;99.90